Aérodrome :
LOGIN :

S'inscrire | Disclaimer

   EN    FR    IT 

 










Légende :    VFR   VFR Marginal   IFR   IFR Intensif   IFR Très Intensif
Visi : 
Plafond : 
>= 8 km
>= 3000ft
5 à 8 km
1000 à 3000 ft
1500m à 5 km
500 à 1000 ft
800 à 1500m
200 à 500 ft
< 800m
< 200 ft
Symboles :   Orages  Brouillard  Fortes neiges  Fortes précipitations  Vent > 20 kt
SIGMETs :   Divers  Orages  Givrage  Turbulence  Onde Orograph.  Cendres Volcan.







- Altitude de l'aérodrome : 768 ft
- Code IATA : MXP


LIMC - Milano Malpensa

DERNIER METAR :
  • 240920Z 35005KT 310V020 CAVOK 27/12 Q1018 NOSIG

METARs EXPIRÉS :
  • 240850Z 33005KT 280V020 CAVOK 26/13 Q1018 NOSIG
  • 240820Z 33004KT 290V350 CAVOK 25/12 Q1018 NOSIG
  • 240750Z 28003KT 240V330 CAVOK 24/11 Q1018 NOSIG
  • 240720Z 29004KT CAVOK 23/12 Q1018 NOSIG
  • 240650Z 31005KT 290V350 CAVOK 23/10 Q1018 NOSIG

TAF TAF LIMC
Valide du 24 à 06h jusqu'au 25 à 12h UTC


240500Z 2406/2512 VRB05KT CAVOK
Pas de NOTAMs connus pour ce terrain.
1 SIGMET publié pour la FIR Milano (LIMM) :
 
Turbulence forte
LIMM SIGMET 1 VALID 240830/241230 LIMM- LIMM MILANO FIR SEV TURB FCST WI N4627 E00951 - N4653 E01022 - N4704 E01210 - N4625 E01340 - N4602 E01336 - N4627 E00951 FL300/400 STNR NC=



MET'MAP, la Météo Aéronautique d'un coup d'oeil ! - Copyright ORBIFLY Décembre 2007 - Disclaimer

ORBIFLY MET'MAP TEAM :

Programmation & Développement : Alexandra Zaïnal
Conception & Développement : Baudouin d'Aumeries
Co-Programmation & Développement : Marc-Olivier Méhu
Soutien technique & logistique : Manuel Goepfert

Contact : metmap@orbifly.com




SOURCES & CREDITS :

   NOAA